Latest Weather Observations for Halls Creek

IDW60801

Issued at 1:05 pm WST Wednesday 3 September 2014 (issued every 30 minutes, with the page automatically refreshed every 10 minutes)

About weather observations | Map of weather stations | Latest weather observations for WA | Other Formats
Station Details ID: 002012 Name: HALLS CREEK AIRPORT Lat: -18.23 Lon: 127.66 Height: 422.0 m
Data from the previous 72 hours. | See also: Recent months at Halls Creek
Date/Time
WST
Temp
°C
App
Temp
°C
Dew
Point
Rel
Hum
%
Delta-T
°C
Wind Press
QNH
hPa
Press
MSL
hPa
Rain
since 9 am
mm
Dir
 
Spd
km/h
Gust
km/h
Spd
kts
Gust
kts
03/01:00pm 32.0 28.5 -2.9 10 16.4 ESE 6 17 3 9 1016.7 - 0.0
03/12:30pm 31.7 27.1 -3.8 10 16.4 ESE 11 26 6 14 1017.2 - 0.0
03/12:00pm 30.7 26.6 -3.2 11 15.7 ENE 9 19 5 10 1018.0 1015.5 0.0
03/11:30am 30.0 25.5 -3.3 11 15.3 ENE 11 24 6 13 1018.5 - 0.0
03/11:00am 29.2 24.4 -2.6 12 14.7 ENE 13 22 7 12 1019.0 - 0.0
03/10:30am 28.0 22.9 -1.6 14 13.8 NE 15 30 8 16 1019.6 - 0.0
03/10:00am 27.7 22.7 -1.5 15 13.6 ENE 15 26 8 14 1020.2 - 0.0
03/09:30am 27.2 22.7 -0.6 16 13.1 ENE 13 24 7 13 1020.6 - 0.0
03/09:00am 25.8 20.8 -0.9 17 12.4 ENE 15 33 8 18 1020.8 1018.3 0.0
03/08:30am 24.9 19.6 -0.5 18 11.8 ENE 17 30 9 16 1020.9 - 0.0
03/08:00am 24.4 20.1 -1.3 18 11.7 E 11 19 6 10 1020.9 - 0.0
03/07:30am 22.4 18.4 -2.5 19 10.9 E 9 15 5 8 1020.9 - 0.0
03/07:00am 21.0 17.7 -1.4 22 9.9 ENE 6 9 3 5 1020.7 - 0.0
03/06:30am 19.2 16.2 -1.9 24 9.1 E 4 9 2 5 1020.4 - 0.0
03/06:00am 17.6 14.1 -2.8 24 8.5 E 6 7 3 4 1020.3 1017.8 0.0
03/05:30am 17.7 14.1 -3.4 23 8.7 E 6 11 3 6 1019.7 - 0.0
03/05:00am 19.2 14.9 -4.5 19 9.7 E 9 15 5 8 1019.1 - 0.0
03/04:30am 19.1 14.9 -4.3 20 9.6 ESE 9 19 5 10 1018.7 - 0.0
03/04:00am 18.4 14.9 -3.2 23 9.0 ESE 6 9 3 5 1018.6 - 0.0
03/03:30am 18.2 14.6 -3.6 22 9.0 ESE 6 7 3 4 1018.2 - 0.0
03/03:00am 18.2 14.7 -2.7 24 8.8 ESE 6 7 3 4 1018.0 1015.5 0.0
03/02:30am 18.8 15.8 -1.5 25 8.8 ESE 4 9 2 5 1017.9 - 0.0
03/02:00am 19.4 15.8 -3.6 21 9.6 ESE 6 9 3 5 1017.9 - 0.0
03/01:30am 19.6 16.2 -5.0 18 10.0 ESE 4 9 2 5 1018.0 - 0.0
03/01:00am 19.3 16.6 -2.1 23 9.2 E 2 7 1 4 1018.0 - 0.0
03/12:30am 20.7 17.0 -4.7 17 10.5 ENE 6 9 3 5 1018.0 - 0.0
03/12:00am 20.5 17.7 -3.7 19 10.2 NE 2 6 1 3 1018.0 1015.5 0.0
 
Date/Time
WST
Temp
°C
App
Temp
°C
Dew
Point
Rel
Hum
%
Delta-T
°C
Wind Press
QNH
hPa
Press
MSL
hPa
Rain
since 9 am
mm
Dir
 
Spd
km/h
Gust
km/h
Spd
kts
Gust
kts
02/11:30pm 20.9 18.4 -3.7 19 10.4 CALM 0 6 0 3 1018.1 - 0.0
02/11:00pm 21.0 18.0 -5.4 16 10.8 E 2 6 1 3 1018.2 - 0.0
02/10:30pm 21.4 18.8 -5.4 16 11.0 CALM 0 2 0 1 1018.1 - 0.0
02/10:00pm 21.6 18.8 -3.4 18 10.7 SE 2 4 1 2 1017.9 - 0.0
02/09:30pm 21.8 18.8 -4.8 16 11.1 NE 2 4 1 2 1018.0 - 0.0
02/09:00pm 22.1 19.6 -4.1 17 11.1 CALM 0 2 0 1 1017.9 1015.4 0.0
02/08:30pm 22.6 19.7 -4.2 16 11.4 ENE 2 4 1 2 1017.6 - 0.0
02/08:00pm 23.4 20.5 -4.6 15 11.9 SSE 2 4 1 2 1017.3 - 0.0
02/07:30pm 24.0 21.0 -5.5 13 12.4 NE 2 4 1 2 1017.1 - 0.0
02/07:00pm 25.6 22.0 -7.5 10 13.6 ESE 4 7 2 4 1016.8 - 0.0
02/06:30pm 26.0 23.0 -2.1 15 12.8 SE 4 6 2 3 1016.5 - 0.0
02/06:00pm 27.2 23.9 -4.2 12 13.9 ESE 4 7 2 4 1016.1 1013.6 0.0
02/05:30pm 28.8 24.6 -10.6 7 15.8 ESE 6 9 3 5 1015.7 - 0.0
02/05:00pm 31.2 26.0 -17.4 3 17.8 ESE 9 17 5 9 1015.3 - 0.0
02/04:30pm 32.6 26.9 -20.6 2 18.8 ESE 11 26 6 14 1015.3 - 0.0
02/04:00pm 33.5 28.7 -17.3 3 19.1 E 7 19 4 10 1015.1 - 0.0
02/03:30pm 33.8 28.5 -19.2 2 19.4 E 9 17 5 9 1015.1 - 0.0
02/03:00pm 33.8 28.5 -13.0 4 18.9 ESE 11 22 6 12 1014.8 1012.3 0.0
02/02:30pm 34.2 28.1 -20.4 2 19.7 SE 13 28 7 15 1014.9 - 0.0
02/02:00pm 34.1 27.2 -21.5 2 19.7 ESE 17 28 9 15 1015.4 - 0.0
02/01:30pm 34.0 28.1 -16.3 3 19.3 ENE 13 30 7 16 1015.8 - 0.0
02/01:00pm 33.7 27.8 -17.3 3 19.2 E 13 28 7 15 1016.1 - 0.0
02/12:30pm 33.2 25.7 -24.0 2 19.3 ESE 20 32 11 17 1016.6 - 0.0
02/12:00pm 32.8 26.6 -15.0 4 18.5 E 15 30 8 16 1016.9 1014.4 0.0
02/11:30am 32.2 26.0 -15.5 4 18.2 E 15 33 8 18 1017.4 - 0.0
02/11:00am 32.1 25.9 -15.1 4 18.1 E 15 37 8 20 1018.0 - 0.0
02/10:30am 31.3 25.5 -14.6 4 17.6 E 13 30 7 16 1018.5 - 0.0
02/10:00am 30.7 24.4 -16.2 4 17.4 E 15 28 8 15 1018.9 - 0.0
02/09:30am 29.9 24.5 -14.4 5 16.8 E 11 20 6 11 1019.3 - 0.0
02/09:00am 28.6 24.2 -10.9 7 15.7 E 7 17 4 9 1019.4 1016.9 0.0
02/08:30am 27.0 22.9 -9.2 8 14.6 ENE 6 11 3 6 1019.5 - 0.0
02/08:00am 24.4 20.8 -7.8 11 13.0 E 4 7 2 4 1019.4 - 0.0
02/07:30am 22.7 19.6 -6.1 14 11.8 E 2 4 1 2 1019.2 - 0.0
02/07:00am 20.5 17.5 -5.2 17 10.5 N 2 4 1 2 1019.2 - 0.0
02/06:30am 18.7 15.8 -4.3 20 9.4 NNW 2 2 1 1 1019.0 - 0.0
02/06:00am 16.0 13.4 -5.3 22 8.3 CALM 0 2 0 1 1018.7 1016.2 0.0
02/05:30am 15.0 11.8 -6.7 22 8.1 ENE 2 2 1 1 1018.4 - 0.0
02/05:00am 15.7 12.7 -5.1 23 8.1 ESE 2 4 1 2 1018.2 - 0.0
02/04:30am 15.9 12.7 -7.0 20 8.6 SW 2 4 1 2 1017.8 - 0.0
02/04:00am 16.7 14.1 -5.1 22 8.6 CALM 0 0 0 0 1017.3 - 0.0
02/03:30am 16.3 13.5 -6.6 20 8.7 CALM 0 2 0 1 1017.3 - 0.0
02/03:00am 15.8 12.7 -6.2 21 8.4 NNW 2 4 1 2 1017.3 1014.8 0.0
02/02:30am 16.3 13.6 -5.6 22 8.5 CALM 0 2 0 1 1017.2 - 0.0
02/02:00am 16.6 13.2 -5.4 21 8.6 ESE 4 6 2 3 1017.2 - 0.0
02/01:30am 17.0 13.8 -3.6 24 8.4 E 4 6 2 3 1017.3 - 0.0
02/01:00am 18.2 15.3 -4.5 21 9.2 SSE 2 4 1 2 1017.3 - 0.0
02/12:30am 19.8 16.3 -6.5 16 10.4 S 4 6 2 3 1017.4 - 0.0
02/12:00am 20.1 16.5 -7.9 14 10.8 S 4 4 2 2 1017.6 1015.0 0.0
 
Date/Time
WST
Temp
°C
App
Temp
°C
Dew
Point
Rel
Hum
%
Delta-T
°C
Wind Press
QNH
hPa
Press
MSL
hPa
Rain
since 9 am
mm
Dir
 
Spd
km/h
Gust
km/h
Spd
kts
Gust
kts
01/11:30pm 19.9 16.6 -4.2 19 10.0 SSE 4 6 2 3 1017.8 - 0.0
01/11:00pm 21.3 17.7 -7.3 14 11.3 S 4 4 2 2 1017.9 - 0.0
01/10:30pm 21.0 17.3 -8.2 13 11.3 S 4 4 2 2 1017.9 - 0.0
01/10:00pm 21.8 17.9 -11.6 10 12.2 SSW 4 6 2 3 1017.9 - 0.0
01/09:30pm 22.1 18.9 -7.2 13 11.7 SSE 2 2 1 1 1018.0 - 0.0
01/09:00pm 21.7 18.7 -5.6 15 11.2 SSE 2 4 1 2 1018.0 1015.5 0.0
01/08:30pm 22.2 19.1 -6.4 14 11.6 S 2 4 1 2 1017.9 - 0.0
01/08:00pm 23.3 19.6 -8.3 11 12.5 SE 4 6 2 3 1017.7 - 0.0
01/07:30pm 23.4 20.4 -1.8 18 11.3 SE 4 4 2 2 1017.3 - 0.0
01/07:00pm 24.2 21.3 -4.4 14 12.3 SSE 2 4 1 2 1016.8 - 0.0
01/06:30pm 24.7 21.5 -6.8 12 13.0 S 2 4 1 2 1016.4 - 0.0
01/06:00pm 25.4 22.4 -1.8 16 12.4 E 4 6 2 3 1016.1 1013.6 0.0
01/05:30pm 27.4 23.9 -6.3 10 14.4 E 4 7 2 4 1015.9 - 0.0
01/05:00pm 29.5 25.6 -10.7 6 16.2 E 4 9 2 5 1015.7 - 0.0
01/04:30pm 30.9 26.6 -11.7 5 17.1 E 6 13 3 7 1015.4 - 0.0
01/04:00pm 31.5 26.7 -17.8 3 18.0 SE 7 17 4 9 1015.2 - 0.0
01/03:30pm 32.0 27.7 -11.4 5 17.7 ESE 6 11 3 6 1014.9 - 0.0
01/03:00pm 32.6 27.1 -16.2 3 18.5 SE 11 20 6 11 1014.9 1012.4 0.0
01/02:30pm 32.2 27.0 -16.5 3 18.3 ESE 9 19 5 10 1014.9 - 0.0
01/02:00pm 32.6 27.4 -17.5 3 18.6 E 9 26 5 14 1015.2 - 0.0
01/01:30pm 32.8 27.7 -14.9 4 18.5 ESE 9 20 5 11 1015.4 - 0.0
01/01:00pm 32.2 26.7 -15.4 4 18.2 ESE 11 20 6 11 1015.9 - 0.0
01/12:30pm 31.8 26.3 -15.8 4 18.0 ESE 11 22 6 12 1016.4 - 0.0
01/12:00pm 31.5 26.1 -13.3 5 17.6 E 11 24 6 13 1016.8 1014.3 0.0
01/11:30am 31.1 25.3 -14.6 4 17.5 E 13 28 7 15 1017.6 - 0.0
01/11:00am 29.8 24.0 -13.9 5 16.7 ESE 13 24 7 13 1018.1 - 0.0
01/10:30am 30.1 24.4 -13.3 5 16.8 E 13 30 7 16 1018.6 - 0.0
01/10:00am 29.2 23.8 -14.3 5 16.4 E 11 24 6 13 1018.9 - 0.0
01/09:30am 28.7 23.4 -12.1 6 15.9 E 11 24 6 13 1019.1 - 0.0
01/09:00am 27.3 22.6 -9.5 8 14.8 E 9 19 5 10 1019.3 1016.8 0.0
01/08:30am 25.2 20.8 -9.7 9 13.7 E 7 13 4 7 1019.4 - 0.0
01/08:00am 23.4 19.9 -6.2 13 12.2 ESE 4 7 2 4 1019.3 - 0.0
01/07:30am 21.1 17.2 -6.8 15 11.1 ESE 6 9 3 5 1019.1 - 0.0
01/07:00am 18.5 15.5 -5.2 19 9.5 E 2 7 1 4 1018.9 - 0.0
01/06:30am 15.3 12.5 -3.7 27 7.6 ESE 2 6 1 3 1018.2 - 0.0
01/06:00am 12.4 9.6 -3.5 33 6.2 NNE 2 2 1 1 1017.9 1015.4 0.0
01/05:30am 10.5 7.9 -4.5 34 5.6 CALM 0 2 0 1 1017.6 - 0.0
01/05:00am 10.3 8.0 -2.5 40 5.0 CALM 0 2 0 1 1017.1 - 0.0
01/04:30am 10.9 8.6 -2.3 39 5.2 CALM 0 2 0 1 1016.7 - 0.0
01/04:00am 12.7 10.0 -2.2 35 6.0 NNW 2 4 1 2 1016.4 - 0.0
01/03:30am 14.3 10.7 -7.8 21 8.0 N 4 6 2 3 1016.3 - 0.0
01/03:00am 14.1 11.4 -5.7 25 7.5 CALM 0 2 0 1 1016.0 1013.5 0.0
01/02:30am 13.4 10.8 -4.5 28 6.9 CALM 0 2 0 1 1015.9 - 0.0
01/02:00am 13.7 10.8 -3.9 29 6.9 SSE 2 4 1 2 1016.0 - 0.0
01/01:30am 14.8 12.3 -3.8 27 7.4 CALM 0 0 0 0 1015.9 - 0.0
01/01:00am 16.4 13.1 -4.8 23 8.4 NNW 4 4 2 2 1015.9 - 0.0
01/12:30am 17.2 14.6 -4.9 21 8.8 CALM 0 2 0 1 1016.0 - 0.0
01/12:00am 17.3 14.8 -4.2 22 8.7 CALM 0 2 0 1 1016.1 1013.6 0.0
 
Date/Time
WST
Temp
°C
App
Temp
°C
Dew
Point
Rel
Hum
%
Delta-T
°C
Wind Press
QNH
hPa
Press
MSL
hPa
Rain
since 9 am
mm
Dir
 
Spd
km/h
Gust
km/h
Spd
kts
Gust
kts
31/11:30pm 18.3 15.9 -3.3 23 9.0 CALM 0 0 0 0 1016.1 - 0.0
31/11:00pm 18.2 15.1 -5.9 19 9.5 NNW 2 4 1 2 1016.2 - 0.0
31/10:30pm 18.4 15.8 -5.4 19 9.5 CALM 0 2 0 1 1016.2 - 0.0
31/10:00pm 19.7 16.7 -4.7 19 10.0 SSE 2 4 1 2 1016.2 - 0.0
31/09:30pm 19.6 16.5 -6.5 16 10.3 NE 2 2 1 1 1016.3 - 0.0
31/09:00pm 20.1 17.3 -3.7 20 10.0 E 2 4 1 2 1016.4 1014.5 0.0
31/08:30pm 20.7 17.7 -1.5 22 9.8 SE 4 4 2 2 1016.5 - 0.0
31/08:00pm 21.1 17.8 -4.1 18 10.6 ESE 4 7 2 4 1016.3 - 0.0
31/07:30pm 21.2 18.3 -0.9 22 9.9 SSE 4 6 2 3 1016.2 - 0.0
31/07:00pm 23.2 20.1 -6.2 13 12.1 S 2 4 1 2 1015.9 - 0.0
31/06:30pm 24.1 21.4 -2.7 16 11.9 E 2 4 1 2 1015.6 - 0.0
31/06:00pm 26.3 22.7 -7.6 10 14.0 ENE 4 6 2 3 1015.3 1013.4 0.0
31/05:30pm 26.5 23.9 -1.7 15 13.0 E 2 4 1 2 1014.8 - 0.0
31/05:00pm 28.3 24.6 -8.9 8 15.3 E 4 9 2 5 1014.6 - 0.0
31/04:30pm 29.8 26.4 -10.1 7 16.3 E 2 6 1 3 1014.4 - 0.0
31/04:00pm 30.3 25.3 -12.9 5 16.9 E 9 19 5 10 1014.4 - 0.0
31/03:30pm 30.4 25.2 -16.6 4 17.3 E 9 17 5 9 1014.4 - 0.0
31/03:00pm 30.5 25.4 -14.8 4 17.2 ENE 9 19 5 10 1014.4 1012.5 0.0
31/02:30pm 30.8 26.2 -13.1 5 17.2 ENE 7 19 4 10 1014.5 - 0.0
31/02:00pm 30.4 25.4 -14.3 5 17.1 ENE 9 24 5 13 1014.6 - 0.0
31/01:30pm 30.4 25.2 -16.6 4 17.3 ENE 9 26 5 14 1014.8 - 0.0

Other Formats:

Comma delimited format used in spreadsheet applications
http://www.bom.gov.au/fwo/IDW60801/IDW60801.94212.axf

JavaScript Object Notation format (JSON) in row-major order
http://www.bom.gov.au/fwo/IDW60801/IDW60801.94212.json